sensor_id;sensor_type;location;lat;lon;timestamp;P1;durP1;ratioP1;P2;durP2;ratioP2
53022;SDS011;38913;44.338;11.206;2023-02-28T00:01:19;18.77;;;11.27;;
53022;SDS011;38913;44.338;11.206;2023-02-28T00:03:44;19.58;;;10.68;;
53022;SDS011;38913;44.338;11.206;2023-02-28T00:06:10;19.88;;;11.00;;
53022;SDS011;38913;44.338;11.206;2023-02-28T00:08:36;20.42;;;11.98;;
53022;SDS011;38913;44.338;11.206;2023-02-28T00:11:05;20.25;;;11.57;;
53022;SDS011;38913;44.338;11.206;2023-02-28T00:13:31;20.40;;;12.13;;
53022;SDS011;38913;44.338;11.206;2023-02-28T00:16:00;22.02;;;13.02;;
53022;SDS011;38913;44.338;11.206;2023-02-28T00:18:25;21.17;;;12.57;;
53022;SDS011;38913;44.338;11.206;2023-02-28T00:20:50;19.13;;;12.18;;
53022;SDS011;38913;44.338;11.206;2023-02-28T00:23:16;21.20;;;12.27;;
53022;SDS011;38913;44.338;11.206;2023-02-28T00:25:41;20.10;;;11.73;;
53022;SDS011;38913;44.338;11.206;2023-02-28T00:28:06;23.00;;;12.10;;
53022;SDS011;38913;44.338;11.206;2023-02-28T00:30:31;19.67;;;11.97;;
53022;SDS011;38913;44.338;11.206;2023-02-28T00:32:56;21.30;;;11.73;;
53022;SDS011;38913;44.338;11.206;2023-02-28T00:35:22;18.17;;;11.10;;
53022;SDS011;38913;44.338;11.206;2023-02-28T00:37:48;18.53;;;11.23;;
53022;SDS011;38913;44.338;11.206;2023-02-28T00:40:14;18.85;;;11.15;;
53022;SDS011;38913;44.338;11.206;2023-02-28T00:42:39;18.67;;;11.83;;
53022;SDS011;38913;44.338;11.206;2023-02-28T00:45:05;18.05;;;11.07;;
53022;SDS011;38913;44.338;11.206;2023-02-28T00:47:31;19.27;;;11.73;;
53022;SDS011;38913;44.338;11.206;2023-02-28T00:49:56;18.55;;;11.80;;
53022;SDS011;38913;44.338;11.206;2023-02-28T00:52:21;19.70;;;12.07;;
53022;SDS011;38913;44.338;11.206;2023-02-28T00:54:46;22.27;;;12.83;;
53022;SDS011;38913;44.338;11.206;2023-02-28T00:57:12;21.03;;;12.57;;
53022;SDS011;38913;44.338;11.206;2023-02-28T00:59:37;21.40;;;12.43;;
53022;SDS011;38913;44.338;11.206;2023-02-28T01:02:02;23.13;;;12.87;;
53022;SDS011;38913;44.338;11.206;2023-02-28T01:04:27;18.92;;;11.88;;
53022;SDS011;38913;44.338;11.206;2023-02-28T01:06:52;21.03;;;11.90;;
53022;SDS011;38913;44.338;11.206;2023-02-28T01:09:18;17.90;;;10.48;;
53022;SDS011;38913;44.338;11.206;2023-02-28T01:11:43;18.08;;;10.45;;
53022;SDS011;38913;44.338;11.206;2023-02-28T01:14:11;21.30;;;11.38;;
53022;SDS011;38913;44.338;11.206;2023-02-28T01:16:37;19.73;;;11.25;;
53022;SDS011;38913;44.338;11.206;2023-02-28T01:19:02;23.30;;;12.00;;
53022;SDS011;38913;44.338;11.206;2023-02-28T01:21:27;19.87;;;11.87;;
53022;SDS011;38913;44.338;11.206;2023-02-28T01:23:55;19.52;;;11.70;;
53022;SDS011;38913;44.338;11.206;2023-02-28T01:26:21;21.05;;;11.55;;
53022;SDS011;38913;44.338;11.206;2023-02-28T01:28:47;18.67;;;10.93;;
53022;SDS011;38913;44.338;11.206;2023-02-28T01:31:13;19.40;;;11.73;;
53022;SDS011;38913;44.338;11.206;2023-02-28T01:33:38;19.17;;;11.73;;
53022;SDS011;38913;44.338;11.206;2023-02-28T01:38:29;22.45;;;11.85;;
53022;SDS011;38913;44.338;11.206;2023-02-28T01:40:55;21.02;;;11.48;;
53022;SDS011;38913;44.338;11.206;2023-02-28T01:45:49;19.70;;;10.98;;
53022;SDS011;38913;44.338;11.206;2023-02-28T01:48:14;20.02;;;11.27;;
53022;SDS011;38913;44.338;11.206;2023-02-28T01:50:41;16.25;;;10.07;;
53022;SDS011;38913;44.338;11.206;2023-02-28T01:53:10;18.70;;;10.73;;
53022;SDS011;38913;44.338;11.206;2023-02-28T01:55:36;20.48;;;11.00;;
53022;SDS011;38913;44.338;11.206;2023-02-28T01:58:03;21.25;;;10.82;;
53022;SDS011;38913;44.338;11.206;2023-02-28T02:00:29;18.63;;;11.48;;
53022;SDS011;38913;44.338;11.206;2023-02-28T02:03:05;18.52;;;10.90;;
53022;SDS011;38913;44.338;11.206;2023-02-28T02:07:57;18.50;;;10.20;;
53022;SDS011;38913;44.338;11.206;2023-02-28T02:13:08;21.45;;;11.13;;
53022;SDS011;38913;44.338;11.206;2023-02-28T02:15:41;20.90;;;11.52;;
53022;SDS011;38913;44.338;11.206;2023-02-28T02:18:16;17.25;;;10.38;;
53022;SDS011;38913;44.338;11.206;2023-02-28T02:26:30;21.05;;;11.40;;
53022;SDS011;38913;44.338;11.206;2023-02-28T02:28:54;22.02;;;10.88;;
53022;SDS011;38913;44.338;11.206;2023-02-28T02:31:26;22.50;;;11.50;;
53022;SDS011;38913;44.338;11.206;2023-02-28T02:39:44;24.70;;;12.60;;
53022;SDS011;38913;44.338;11.206;2023-02-28T02:42:16;25.20;;;12.25;;
53022;SDS011;38913;44.338;11.206;2023-02-28T02:44:49;22.42;;;12.30;;
53022;SDS011;38913;44.338;11.206;2023-02-28T02:47:16;21.63;;;13.10;;
53022;SDS011;38913;44.338;11.206;2023-02-28T02:49:46;22.10;;;12.43;;
53022;SDS011;38913;44.338;11.206;2023-02-28T02:52:14;27.77;;;13.15;;
53022;SDS011;38913;44.338;11.206;2023-02-28T02:54:41;21.67;;;12.32;;
53022;SDS011;38913;44.338;11.206;2023-02-28T02:57:13;20.02;;;12.32;;
53022;SDS011;38913;44.338;11.206;2023-02-28T02:59:42;20.83;;;11.63;;
53022;SDS011;38913;44.338;11.206;2023-02-28T03:02:08;21.52;;;12.20;;
53022;SDS011;38913;44.338;11.206;2023-02-28T03:04:38;23.20;;;12.40;;
53022;SDS011;38913;44.338;11.206;2023-02-28T03:07:05;24.65;;;12.60;;
53022;SDS011;38913;44.338;11.206;2023-02-28T03:09:32;23.83;;;13.15;;
53022;SDS011;38913;44.338;11.206;2023-02-28T03:11:58;22.77;;;12.32;;
53022;SDS011;38913;44.338;11.206;2023-02-28T03:22:14;24.27;;;12.48;;
53022;SDS011;38913;44.338;11.206;2023-02-28T03:27:10;21.60;;;12.27;;
53022;SDS011;38913;44.338;11.206;2023-02-28T03:29:42;21.95;;;12.07;;
53022;SDS011;38913;44.338;11.206;2023-02-28T03:32:11;19.60;;;10.68;;
53022;SDS011;38913;44.338;11.206;2023-02-28T03:34:43;24.35;;;11.63;;
53022;SDS011;38913;44.338;11.206;2023-02-28T03:37:12;22.85;;;11.60;;
53022;SDS011;38913;44.338;11.206;2023-02-28T03:39:40;22.50;;;11.90;;
53022;SDS011;38913;44.338;11.206;2023-02-28T03:42:09;21.50;;;11.82;;
53022;SDS011;38913;44.338;11.206;2023-02-28T03:44:38;23.23;;;11.93;;
53022;SDS011;38913;44.338;11.206;2023-02-28T03:47:14;22.10;;;11.77;;
53022;SDS011;38913;44.338;11.206;2023-02-28T03:49:54;21.65;;;11.32;;
53022;SDS011;38913;44.338;11.206;2023-02-28T03:52:23;20.92;;;11.25;;
53022;SDS011;38913;44.338;11.206;2023-02-28T03:54:51;19.00;;;10.68;;
53022;SDS011;38913;44.338;11.206;2023-02-28T03:59:59;20.38;;;11.52;;
53022;SDS011;38913;44.338;11.206;2023-02-28T04:04:49;23.48;;;10.93;;
53022;SDS011;38913;44.338;11.206;2023-02-28T04:07:16;18.27;;;10.52;;
53022;SDS011;38913;44.338;11.206;2023-02-28T04:09:41;21.27;;;11.32;;
53022;SDS011;38913;44.338;11.206;2023-02-28T04:12:07;18.85;;;11.48;;
53022;SDS011;38913;44.338;11.206;2023-02-28T04:14:32;22.25;;;11.57;;
53022;SDS011;38913;44.338;11.206;2023-02-28T04:16:57;19.97;;;11.27;;
53022;SDS011;38913;44.338;11.206;2023-02-28T04:19:23;18.60;;;10.70;;
53022;SDS011;38913;44.338;11.206;2023-02-28T04:21:49;18.27;;;10.73;;
53022;SDS011;38913;44.338;11.206;2023-02-28T04:24:16;19.25;;;10.85;;
53022;SDS011;38913;44.338;11.206;2023-02-28T04:26:43;19.75;;;11.45;;
53022;SDS011;38913;44.338;11.206;2023-02-28T04:29:09;22.88;;;12.13;;
53022;SDS011;38913;44.338;11.206;2023-02-28T04:31:34;19.83;;;11.32;;
53022;SDS011;38913;44.338;11.206;2023-02-28T04:34:00;20.33;;;11.30;;
53022;SDS011;38913;44.338;11.206;2023-02-28T04:36:25;18.95;;;10.50;;
53022;SDS011;38913;44.338;11.206;2023-02-28T04:38:50;18.00;;;10.88;;
53022;SDS011;38913;44.338;11.206;2023-02-28T04:41:16;16.38;;;9.90;;
53022;SDS011;38913;44.338;11.206;2023-02-28T04:43:41;17.55;;;10.40;;
53022;SDS011;38913;44.338;11.206;2023-02-28T04:46:07;22.20;;;11.05;;
53022;SDS011;38913;44.338;11.206;2023-02-28T04:48:34;18.95;;;10.57;;
53022;SDS011;38913;44.338;11.206;2023-02-28T04:51:03;18.83;;;11.10;;
53022;SDS011;38913;44.338;11.206;2023-02-28T04:53:28;17.83;;;9.35;;
53022;SDS011;38913;44.338;11.206;2023-02-28T04:55:54;17.95;;;10.20;;
53022;SDS011;38913;44.338;11.206;2023-02-28T04:58:20;16.40;;;9.88;;
53022;SDS011;38913;44.338;11.206;2023-02-28T05:00:48;19.30;;;10.63;;
53022;SDS011;38913;44.338;11.206;2023-02-28T05:03:13;18.00;;;11.10;;
53022;SDS011;38913;44.338;11.206;2023-02-28T05:05:38;18.80;;;10.23;;
53022;SDS011;38913;44.338;11.206;2023-02-28T05:08:04;18.37;;;10.57;;
53022;SDS011;38913;44.338;11.206;2023-02-28T05:10:30;20.13;;;11.18;;
53022;SDS011;38913;44.338;11.206;2023-02-28T05:12:55;17.58;;;10.25;;
53022;SDS011;38913;44.338;11.206;2023-02-28T05:15:20;20.80;;;10.02;;
53022;SDS011;38913;44.338;11.206;2023-02-28T05:17:46;19.38;;;10.57;;
53022;SDS011;38913;44.338;11.206;2023-02-28T05:20:11;18.02;;;10.23;;
53022;SDS011;38913;44.338;11.206;2023-02-28T05:22:38;18.63;;;10.60;;
53022;SDS011;38913;44.338;11.206;2023-02-28T05:25:04;18.52;;;11.45;;
53022;SDS011;38913;44.338;11.206;2023-02-28T05:27:30;17.70;;;10.50;;
53022;SDS011;38913;44.338;11.206;2023-02-28T05:29:55;22.58;;;10.63;;
53022;SDS011;38913;44.338;11.206;2023-02-28T05:32:20;18.15;;;10.35;;
53022;SDS011;38913;44.338;11.206;2023-02-28T05:34:46;16.73;;;10.15;;
53022;SDS011;38913;44.338;11.206;2023-02-28T05:37:14;17.50;;;10.33;;
53022;SDS011;38913;44.338;11.206;2023-02-28T05:39:40;20.98;;;10.98;;
53022;SDS011;38913;44.338;11.206;2023-02-28T05:42:06;19.17;;;10.30;;
53022;SDS011;38913;44.338;11.206;2023-02-28T05:44:31;19.05;;;10.68;;
53022;SDS011;38913;44.338;11.206;2023-02-28T05:46:57;21.77;;;10.80;;
53022;SDS011;38913;44.338;11.206;2023-02-28T05:49:22;19.17;;;10.75;;
53022;SDS011;38913;44.338;11.206;2023-02-28T05:51:47;15.83;;;10.17;;
53022;SDS011;38913;44.338;11.206;2023-02-28T05:54:12;17.60;;;10.37;;
53022;SDS011;38913;44.338;11.206;2023-02-28T05:56:38;17.38;;;11.20;;
53022;SDS011;38913;44.338;11.206;2023-02-28T05:59:05;20.48;;;11.30;;
53022;SDS011;38913;44.338;11.206;2023-02-28T06:01:34;22.50;;;12.10;;
53022;SDS011;38913;44.338;11.206;2023-02-28T06:04:00;20.75;;;11.70;;
53022;SDS011;38913;44.338;11.206;2023-02-28T06:06:26;21.85;;;11.52;;
53022;SDS011;38913;44.338;11.206;2023-02-28T06:08:51;20.70;;;11.60;;
53022;SDS011;38913;44.338;11.206;2023-02-28T06:11:16;21.45;;;12.13;;
53022;SDS011;38913;44.338;11.206;2023-02-28T06:13:42;18.52;;;11.27;;
53022;SDS011;38913;44.338;11.206;2023-02-28T06:16:08;19.85;;;10.98;;
53022;SDS011;38913;44.338;11.206;2023-02-28T06:18:35;21.73;;;12.23;;
53022;SDS011;38913;44.338;11.206;2023-02-28T06:21:00;25.57;;;12.70;;
53022;SDS011;38913;44.338;11.206;2023-02-28T06:23:25;23.17;;;12.05;;
53022;SDS011;38913;44.338;11.206;2023-02-28T06:25:50;23.07;;;12.50;;
53022;SDS011;38913;44.338;11.206;2023-02-28T06:28:17;17.92;;;11.20;;
53022;SDS011;38913;44.338;11.206;2023-02-28T06:30:43;21.85;;;11.77;;
53022;SDS011;38913;44.338;11.206;2023-02-28T06:33:08;22.50;;;12.35;;
53022;SDS011;38913;44.338;11.206;2023-02-28T06:35:33;21.48;;;12.10;;
53022;SDS011;38913;44.338;11.206;2023-02-28T06:37:58;22.73;;;13.05;;
53022;SDS011;38913;44.338;11.206;2023-02-28T06:40:24;19.42;;;12.32;;
53022;SDS011;38913;44.338;11.206;2023-02-28T06:42:49;22.88;;;12.10;;
53022;SDS011;38913;44.338;11.206;2023-02-28T06:45:14;21.50;;;12.70;;
53022;SDS011;38913;44.338;11.206;2023-02-28T06:47:40;21.63;;;13.17;;
53022;SDS011;38913;44.338;11.206;2023-02-28T06:50:06;24.30;;;12.38;;
53022;SDS011;38913;44.338;11.206;2023-02-28T06:52:32;22.33;;;11.43;;
53022;SDS011;38913;44.338;11.206;2023-02-28T06:54:57;21.90;;;12.95;;
53022;SDS011;38913;44.338;11.206;2023-02-28T06:57:28;22.75;;;12.65;;
53022;SDS011;38913;44.338;11.206;2023-02-28T06:59:56;21.48;;;12.35;;
53022;SDS011;38913;44.338;11.206;2023-02-28T07:02:21;21.23;;;12.55;;
53022;SDS011;38913;44.338;11.206;2023-02-28T07:04:46;20.83;;;12.37;;
53022;SDS011;38913;44.338;11.206;2023-02-28T07:07:11;21.65;;;12.20;;
53022;SDS011;38913;44.338;11.206;2023-02-28T07:09:37;21.00;;;12.90;;
53022;SDS011;38913;44.338;11.206;2023-02-28T07:12:02;24.00;;;13.07;;
53022;SDS011;38913;44.338;11.206;2023-02-28T07:14:27;20.35;;;12.13;;
53022;SDS011;38913;44.338;11.206;2023-02-28T07:16:52;22.42;;;12.55;;
53022;SDS011;38913;44.338;11.206;2023-02-28T07:19:18;22.02;;;12.15;;
53022;SDS011;38913;44.338;11.206;2023-02-28T07:21:43;19.05;;;11.88;;
53022;SDS011;38913;44.338;11.206;2023-02-28T07:24:08;22.52;;;12.43;;
53022;SDS011;38913;44.338;11.206;2023-02-28T07:26:33;20.50;;;12.50;;
53022;SDS011;38913;44.338;11.206;2023-02-28T07:28:59;21.63;;;12.70;;
53022;SDS011;38913;44.338;11.206;2023-02-28T07:31:25;20.77;;;12.63;;
53022;SDS011;38913;44.338;11.206;2023-02-28T07:33:50;20.90;;;12.40;;
53022;SDS011;38913;44.338;11.206;2023-02-28T07:36:16;21.73;;;12.25;;
53022;SDS011;38913;44.338;11.206;2023-02-28T07:38:43;22.00;;;12.63;;
53022;SDS011;38913;44.338;11.206;2023-02-28T07:41:09;24.55;;;12.25;;
53022;SDS011;38913;44.338;11.206;2023-02-28T07:43:34;22.30;;;12.68;;
53022;SDS011;38913;44.338;11.206;2023-02-28T07:46:18;21.08;;;11.77;;
53022;SDS011;38913;44.338;11.206;2023-02-28T07:48:45;20.35;;;12.50;;
53022;SDS011;38913;44.338;11.206;2023-02-28T07:51:10;21.38;;;12.10;;
53022;SDS011;38913;44.338;11.206;2023-02-28T07:53:35;21.67;;;11.73;;
53022;SDS011;38913;44.338;11.206;2023-02-28T07:56:01;23.13;;;12.65;;
53022;SDS011;38913;44.338;11.206;2023-02-28T07:58:27;22.10;;;12.82;;
53022;SDS011;38913;44.338;11.206;2023-02-28T08:00:52;23.52;;;13.15;;
53022;SDS011;38913;44.338;11.206;2023-02-28T08:03:18;21.87;;;13.03;;
53022;SDS011;38913;44.338;11.206;2023-02-28T08:05:43;23.23;;;12.98;;
53022;SDS011;38913;44.338;11.206;2023-02-28T08:08:08;21.47;;;12.87;;
53022;SDS011;38913;44.338;11.206;2023-02-28T08:10:34;27.58;;;13.35;;
53022;SDS011;38913;44.338;11.206;2023-02-28T08:12:59;21.38;;;13.25;;
53022;SDS011;38913;44.338;11.206;2023-02-28T08:15:25;20.95;;;12.27;;
53022;SDS011;38913;44.338;11.206;2023-02-28T08:17:50;26.20;;;13.77;;
53022;SDS011;38913;44.338;11.206;2023-02-28T08:20:15;21.27;;;13.27;;
53022;SDS011;38913;44.338;11.206;2023-02-28T08:22:40;21.23;;;12.73;;
53022;SDS011;38913;44.338;11.206;2023-02-28T08:25:06;24.40;;;12.88;;
53022;SDS011;38913;44.338;11.206;2023-02-28T08:27:32;26.77;;;13.57;;
53022;SDS011;38913;44.338;11.206;2023-02-28T08:29:57;22.55;;;13.20;;
53022;SDS011;38913;44.338;11.206;2023-02-28T08:32:22;23.45;;;12.75;;
53022;SDS011;38913;44.338;11.206;2023-02-28T08:34:48;24.67;;;13.95;;
53022;SDS011;38913;44.338;11.206;2023-02-28T08:37:13;22.77;;;13.88;;
53022;SDS011;38913;44.338;11.206;2023-02-28T08:39:39;23.10;;;13.65;;
53022;SDS011;38913;44.338;11.206;2023-02-28T08:42:04;25.80;;;14.63;;
53022;SDS011;38913;44.338;11.206;2023-02-28T08:44:29;25.67;;;14.63;;
53022;SDS011;38913;44.338;11.206;2023-02-28T08:46:55;25.43;;;14.37;;
53022;SDS011;38913;44.338;11.206;2023-02-28T08:49:20;22.80;;;13.00;;
53022;SDS011;38913;44.338;11.206;2023-02-28T08:51:45;26.60;;;15.37;;
53022;SDS011;38913;44.338;11.206;2023-02-28T08:54:10;26.33;;;14.60;;
53022;SDS011;38913;44.338;11.206;2023-02-28T08:56:37;23.75;;;13.60;;
53022;SDS011;38913;44.338;11.206;2023-02-28T08:59:03;21.83;;;13.35;;
53022;SDS011;38913;44.338;11.206;2023-02-28T09:01:28;22.90;;;13.63;;
53022;SDS011;38913;44.338;11.206;2023-02-28T09:03:54;23.40;;;13.60;;
53022;SDS011;38913;44.338;11.206;2023-02-28T09:06:20;26.90;;;14.60;;
53022;SDS011;38913;44.338;11.206;2023-02-28T09:08:46;23.80;;;14.85;;
53022;SDS011;38913;44.338;11.206;2023-02-28T09:11:12;26.73;;;14.68;;
53022;SDS011;38913;44.338;11.206;2023-02-28T09:13:37;26.33;;;15.10;;
53022;SDS011;38913;44.338;11.206;2023-02-28T09:16:04;25.33;;;14.88;;
53022;SDS011;38913;44.338;11.206;2023-02-28T09:18:30;26.90;;;14.70;;
53022;SDS011;38913;44.338;11.206;2023-02-28T09:20:55;26.42;;;15.07;;
53022;SDS011;38913;44.338;11.206;2023-02-28T09:23:21;24.88;;;14.60;;
53022;SDS011;38913;44.338;11.206;2023-02-28T09:25:47;28.00;;;15.77;;
53022;SDS011;38913;44.338;11.206;2023-02-28T09:28:13;28.60;;;16.13;;
53022;SDS011;38913;44.338;11.206;2023-02-28T09:30:40;30.23;;;15.82;;
53022;SDS011;38913;44.338;11.206;2023-02-28T09:33:06;27.20;;;16.45;;
53022;SDS011;38913;44.338;11.206;2023-02-28T09:35:31;23.83;;;14.55;;
53022;SDS011;38913;44.338;11.206;2023-02-28T09:37:56;23.67;;;14.18;;
53022;SDS011;38913;44.338;11.206;2023-02-28T09:40:24;26.48;;;15.48;;
53022;SDS011;38913;44.338;11.206;2023-02-28T09:42:51;28.77;;;14.52;;
53022;SDS011;38913;44.338;11.206;2023-02-28T09:48:20;24.35;;;14.55;;
53022;SDS011;38913;44.338;11.206;2023-02-28T09:50:48;24.08;;;13.45;;
53022;SDS011;38913;44.338;11.206;2023-02-28T09:53:33;23.98;;;13.07;;
53022;SDS011;38913;44.338;11.206;2023-02-28T09:56:44;23.73;;;13.65;;
53022;SDS011;38913;44.338;11.206;2023-02-28T09:58:47;25.15;;;14.45;;
53022;SDS011;38913;44.338;11.206;2023-02-28T10:01:25;24.08;;;14.02;;
53022;SDS011;38913;44.338;11.206;2023-02-28T10:06:19;24.17;;;12.73;;
53022;SDS011;38913;44.338;11.206;2023-02-28T10:08:47;21.48;;;13.05;;
53022;SDS011;38913;44.338;11.206;2023-02-28T10:11:16;21.55;;;12.98;;
53022;SDS011;38913;44.338;11.206;2023-02-28T10:16:35;24.77;;;13.18;;
53022;SDS011;38913;44.338;11.206;2023-02-28T10:21:28;20.80;;;12.77;;
53022;SDS011;38913;44.338;11.206;2023-02-28T10:24:01;21.60;;;12.68;;
53022;SDS011;38913;44.338;11.206;2023-02-28T10:26:27;23.38;;;12.45;;
53022;SDS011;38913;44.338;11.206;2023-02-28T10:28:54;20.75;;;12.05;;
53022;SDS011;38913;44.338;11.206;2023-02-28T10:31:19;21.92;;;13.65;;
53022;SDS011;38913;44.338;11.206;2023-02-28T10:33:45;24.73;;;13.77;;
53022;SDS011;38913;44.338;11.206;2023-02-28T10:36:14;24.00;;;13.45;;
53022;SDS011;38913;44.338;11.206;2023-02-28T10:38:41;20.13;;;11.98;;
53022;SDS011;38913;44.338;11.206;2023-02-28T10:41:08;20.80;;;12.25;;
53022;SDS011;38913;44.338;11.206;2023-02-28T10:43:33;20.60;;;13.18;;
53022;SDS011;38913;44.338;11.206;2023-02-28T10:48:32;20.23;;;12.68;;
53022;SDS011;38913;44.338;11.206;2023-02-28T10:50:57;19.27;;;12.32;;
53022;SDS011;38913;44.338;11.206;2023-02-28T11:01:14;21.38;;;12.32;;
53022;SDS011;38913;44.338;11.206;2023-02-28T11:03:40;19.73;;;12.73;;
53022;SDS011;38913;44.338;11.206;2023-02-28T11:06:13;19.50;;;12.53;;
53022;SDS011;38913;44.338;11.206;2023-02-28T11:08:49;20.50;;;13.43;;
53022;SDS011;38913;44.338;11.206;2023-02-28T11:13:42;19.73;;;12.35;;
53022;SDS011;38913;44.338;11.206;2023-02-28T11:16:09;24.73;;;13.35;;
53022;SDS011;38913;44.338;11.206;2023-02-28T11:21:03;20.70;;;13.05;;
53022;SDS011;38913;44.338;11.206;2023-02-28T11:23:29;21.90;;;12.80;;
53022;SDS011;38913;44.338;11.206;2023-02-28T11:25:56;21.27;;;12.77;;
53022;SDS011;38913;44.338;11.206;2023-02-28T11:35:58;19.90;;;11.23;;
53022;SDS011;38913;44.338;11.206;2023-02-28T11:38:24;23.63;;;13.15;;
53022;SDS011;38913;44.338;11.206;2023-02-28T11:56:17;24.98;;;14.48;;
53022;SDS011;38913;44.338;11.206;2023-02-28T11:58:46;22.10;;;13.43;;
53022;SDS011;38913;44.338;11.206;2023-02-28T12:01:31;22.17;;;12.88;;
53022;SDS011;38913;44.338;11.206;2023-02-28T12:07:07;20.90;;;12.93;;
53022;SDS011;38913;44.338;11.206;2023-02-28T12:12:23;21.75;;;13.20;;
53022;SDS011;38913;44.338;11.206;2023-02-28T12:19:52;19.92;;;13.07;;
53022;SDS011;38913;44.338;11.206;2023-02-28T12:27:41;22.95;;;13.68;;
53022;SDS011;38913;44.338;11.206;2023-02-28T12:30:19;22.25;;;13.07;;
53022;SDS011;38913;44.338;11.206;2023-02-28T12:33:06;23.45;;;13.73;;
53022;SDS011;38913;44.338;11.206;2023-02-28T12:35:38;29.15;;;16.63;;
53022;SDS011;38913;44.338;11.206;2023-02-28T12:38:10;28.25;;;15.43;;
53022;SDS011;38913;44.338;11.206;2023-02-28T12:40:45;30.95;;;18.05;;
53022;SDS011;38913;44.338;11.206;2023-02-28T12:43:12;24.27;;;14.57;;
53022;SDS011;38913;44.338;11.206;2023-02-28T12:48:07;27.77;;;16.08;;
53022;SDS011;38913;44.338;11.206;2023-02-28T12:50:33;26.95;;;15.65;;
53022;SDS011;38913;44.338;11.206;2023-02-28T12:53:14;27.95;;;16.30;;
53022;SDS011;38913;44.338;11.206;2023-02-28T12:55:49;27.83;;;16.52;;
53022;SDS011;38913;44.338;11.206;2023-02-28T13:11:22;27.15;;;16.85;;
53022;SDS011;38913;44.338;11.206;2023-02-28T13:13:47;27.15;;;15.65;;
53022;SDS011;38913;44.338;11.206;2023-02-28T13:16:13;26.40;;;16.38;;
53022;SDS011;38913;44.338;11.206;2023-02-28T13:18:39;31.75;;;20.48;;
53022;SDS011;38913;44.338;11.206;2023-02-28T13:21:08;27.85;;;19.50;;
53022;SDS011;38913;44.338;11.206;2023-02-28T13:26:08;25.90;;;15.90;;
53022;SDS011;38913;44.338;11.206;2023-02-28T13:36:27;22.52;;;13.80;;
53022;SDS011;38913;44.338;11.206;2023-02-28T13:44:01;24.45;;;15.38;;
53022;SDS011;38913;44.338;11.206;2023-02-28T13:46:27;26.25;;;16.60;;
53022;SDS011;38913;44.338;11.206;2023-02-28T13:48:52;24.80;;;14.93;;
53022;SDS011;38913;44.338;11.206;2023-02-28T13:54:06;23.67;;;14.52;;
53022;SDS011;38913;44.338;11.206;2023-02-28T13:56:34;34.67;;;18.17;;
53022;SDS011;38913;44.338;11.206;2023-02-28T14:06:36;23.87;;;14.57;;
53022;SDS011;38913;44.338;11.206;2023-02-28T14:09:03;21.92;;;14.50;;
53022;SDS011;38913;44.338;11.206;2023-02-28T14:11:36;24.00;;;15.88;;
53022;SDS011;38913;44.338;11.206;2023-02-28T14:14:04;26.65;;;17.02;;
53022;SDS011;38913;44.338;11.206;2023-02-28T14:27:29;23.95;;;15.25;;
53022;SDS011;38913;44.338;11.206;2023-02-28T14:30:04;26.58;;;15.13;;
53022;SDS011;38913;44.338;11.206;2023-02-28T14:37:42;24.90;;;15.25;;
53022;SDS011;38913;44.338;11.206;2023-02-28T14:40:14;22.90;;;14.70;;
53022;SDS011;38913;44.338;11.206;2023-02-28T14:42:45;23.02;;;14.80;;
53022;SDS011;38913;44.338;11.206;2023-02-28T14:45:18;23.45;;;15.10;;
53022;SDS011;38913;44.338;11.206;2023-02-28T14:47:44;23.80;;;14.77;;
53022;SDS011;38913;44.338;11.206;2023-02-28T14:50:20;23.77;;;15.05;;
53022;SDS011;38913;44.338;11.206;2023-02-28T14:52:46;23.65;;;14.18;;
53022;SDS011;38913;44.338;11.206;2023-02-28T14:55:15;23.75;;;14.15;;
53022;SDS011;38913;44.338;11.206;2023-02-28T14:57:43;23.90;;;14.25;;
53022;SDS011;38913;44.338;11.206;2023-02-28T15:02:41;26.77;;;16.45;;
53022;SDS011;38913;44.338;11.206;2023-02-28T15:07:34;26.05;;;15.95;;
53022;SDS011;38913;44.338;11.206;2023-02-28T15:10:07;28.42;;;17.50;;
53022;SDS011;38913;44.338;11.206;2023-02-28T15:12:33;43.05;;;24.60;;
53022;SDS011;38913;44.338;11.206;2023-02-28T15:14:59;48.70;;;27.23;;
53022;SDS011;38913;44.338;11.206;2023-02-28T15:17:24;40.22;;;24.60;;
53022;SDS011;38913;44.338;11.206;2023-02-28T15:19:50;30.38;;;16.95;;
53022;SDS011;38913;44.338;11.206;2023-02-28T15:22:26;27.90;;;16.60;;
53022;SDS011;38913;44.338;11.206;2023-02-28T15:24:54;26.55;;;16.67;;
53022;SDS011;38913;44.338;11.206;2023-02-28T15:27:24;27.60;;;16.52;;
53022;SDS011;38913;44.338;11.206;2023-02-28T15:29:51;27.17;;;16.75;;
53022;SDS011;38913;44.338;11.206;2023-02-28T15:32:24;28.70;;;17.92;;
53022;SDS011;38913;44.338;11.206;2023-02-28T15:34:50;31.00;;;17.40;;
53022;SDS011;38913;44.338;11.206;2023-02-28T15:42:36;31.77;;;18.08;;
53022;SDS011;38913;44.338;11.206;2023-02-28T15:45:01;29.42;;;18.17;;
53022;SDS011;38913;44.338;11.206;2023-02-28T15:47:27;26.65;;;16.70;;
53022;SDS011;38913;44.338;11.206;2023-02-28T15:49:58;27.50;;;16.77;;
53022;SDS011;38913;44.338;11.206;2023-02-28T15:52:40;31.15;;;17.77;;
53022;SDS011;38913;44.338;11.206;2023-02-28T15:55:19;29.00;;;18.33;;
53022;SDS011;38913;44.338;11.206;2023-02-28T15:57:45;31.38;;;17.42;;
53022;SDS011;38913;44.338;11.206;2023-02-28T16:00:12;28.60;;;17.45;;
53022;SDS011;38913;44.338;11.206;2023-02-28T16:02:38;29.67;;;18.15;;
53022;SDS011;38913;44.338;11.206;2023-02-28T16:07:32;27.50;;;17.30;;
53022;SDS011;38913;44.338;11.206;2023-02-28T16:09:58;28.60;;;16.95;;
53022;SDS011;38913;44.338;11.206;2023-02-28T16:12:28;28.00;;;16.55;;
53022;SDS011;38913;44.338;11.206;2023-02-28T16:14:54;29.95;;;17.70;;
53022;SDS011;38913;44.338;11.206;2023-02-28T16:17:21;28.23;;;16.85;;
53022;SDS011;38913;44.338;11.206;2023-02-28T16:19:47;28.42;;;17.08;;
53022;SDS011;38913;44.338;11.206;2023-02-28T16:22:12;30.45;;;17.77;;
53022;SDS011;38913;44.338;11.206;2023-02-28T16:24:37;30.37;;;17.33;;
53022;SDS011;38913;44.338;11.206;2023-02-28T16:27:03;30.23;;;17.67;;
53022;SDS011;38913;44.338;11.206;2023-02-28T16:29:34;31.08;;;18.13;;
53022;SDS011;38913;44.338;11.206;2023-02-28T16:32:00;28.42;;;17.25;;
53022;SDS011;38913;44.338;11.206;2023-02-28T16:34:26;32.97;;;18.25;;
53022;SDS011;38913;44.338;11.206;2023-02-28T16:36:52;30.15;;;17.42;;
53022;SDS011;38913;44.338;11.206;2023-02-28T16:39:17;32.38;;;17.63;;
53022;SDS011;38913;44.338;11.206;2023-02-28T16:41:45;31.48;;;17.67;;
53022;SDS011;38913;44.338;11.206;2023-02-28T16:44:13;33.08;;;17.27;;
53022;SDS011;38913;44.338;11.206;2023-02-28T16:46:39;33.45;;;18.30;;
53022;SDS011;38913;44.338;11.206;2023-02-28T16:49:04;32.85;;;17.40;;
53022;SDS011;38913;44.338;11.206;2023-02-28T16:51:29;33.63;;;18.33;;
53022;SDS011;38913;44.338;11.206;2023-02-28T16:53:55;33.07;;;18.73;;
53022;SDS011;38913;44.338;11.206;2023-02-28T16:56:21;31.07;;;19.17;;
53022;SDS011;38913;44.338;11.206;2023-02-28T16:58:47;31.25;;;18.98;;
53022;SDS011;38913;44.338;11.206;2023-02-28T17:01:13;34.67;;;19.98;;